Terminal Aerodrome Forecast
Issued by NWS Wakefield, VA

Home | Current Version | Previous Version | Text Only | Print | Product List | Glossary On
Versions: 1 2 3 4 5 6 7 8 9 10 11 12 13 14 15 16 17
000
FTUS41 KAKQ 302056 AAA
TAFRIC
TAF AMD
KRIC 302056Z 3021/3118 20008KT P6SM SCT040 BKN120
      TEMPO 3022/3023 VRB15KT 5SM SHRA BKN040
     FM310200 24005KT P6SM SCT030 BKN080
     FM310900 35005KT P6SM SKC=

USA.gov is the U.S. government's official web portal to all federal, state and local government web resources and services.